sensor_id;sensor_type;location;lat;lon;timestamp;pressure;altitude;pressure_sealevel;temperature;humidity
71222;BME280;58965;59.324;18.268;2022-08-19T00:01:21;101118.82;;;15.38;37.74
71222;BME280;58965;59.324;18.268;2022-08-19T00:03:46;101121.83;;;16.31;36.58
71222;BME280;58965;59.324;18.268;2022-08-19T00:06:12;101116.34;;;17.23;35.45
71222;BME280;58965;59.324;18.268;2022-08-19T00:08:37;101116.49;;;16.41;35.84
71222;BME280;58965;59.324;18.268;2022-08-19T00:11:02;101117.31;;;16.48;36.69
71222;BME280;58965;59.324;18.268;2022-08-19T00:13:27;101116.58;;;16.02;37.20
71222;BME280;58965;59.324;18.268;2022-08-19T00:15:53;101113.16;;;16.20;37.18
71222;BME280;58965;59.324;18.268;2022-08-19T00:18:18;101111.15;;;16.59;36.37
71222;BME280;58965;59.324;18.268;2022-08-19T00:20:44;101107.28;;;17.09;36.28
71222;BME280;58965;59.324;18.268;2022-08-19T00:23:09;101110.88;;;16.94;36.63
71222;BME280;58965;59.324;18.268;2022-08-19T00:25:35;101108.62;;;16.18;37.43
71222;BME280;58965;59.324;18.268;2022-08-19T00:28:01;101106.39;;;16.42;36.86
71222;BME280;58965;59.324;18.268;2022-08-19T00:30:25;101100.54;;;16.09;37.40
71222;BME280;58965;59.324;18.268;2022-08-19T00:32:50;101096.54;;;16.22;37.41
71222;BME280;58965;59.324;18.268;2022-08-19T00:35:16;101092.25;;;16.55;36.83
71222;BME280;58965;59.324;18.268;2022-08-19T00:37:42;101088.68;;;16.96;36.67
71222;BME280;58965;59.324;18.268;2022-08-19T00:40:08;101083.65;;;17.09;36.19
71222;BME280;58965;59.324;18.268;2022-08-19T00:42:33;101078.52;;;17.15;36.38
71222;BME280;58965;59.324;18.268;2022-08-19T00:44:59;101080.24;;;16.02;37.75
71222;BME280;58965;59.324;18.268;2022-08-19T00:47:24;101080.64;;;16.91;36.64
71222;BME280;58965;59.324;18.268;2022-08-19T00:49:51;101081.20;;;16.53;36.99
71222;BME280;58965;59.324;18.268;2022-08-19T00:52:18;101080.67;;;16.58;36.73
71222;BME280;58965;59.324;18.268;2022-08-19T00:54:41;101083.37;;;16.53;36.87
71222;BME280;58965;59.324;18.268;2022-08-19T00:57:08;101087.63;;;16.63;36.26
71222;BME280;58965;59.324;18.268;2022-08-19T00:59:30;101086.10;;;17.43;36.21
71222;BME280;58965;59.324;18.268;2022-08-19T01:01:56;101087.33;;;16.33;37.60
71222;BME280;58965;59.324;18.268;2022-08-19T01:04:21;101084.32;;;15.49;38.76
71222;BME280;58965;59.324;18.268;2022-08-19T01:06:47;101078.36;;;15.13;38.44
71222;BME280;58965;59.324;18.268;2022-08-19T01:09:12;101076.36;;;16.56;36.92
71222;BME280;58965;59.324;18.268;2022-08-19T01:11:40;101079.01;;;16.74;37.43
71222;BME280;58965;59.324;18.268;2022-08-19T01:14:03;101078.31;;;17.08;36.92
71222;BME280;58965;59.324;18.268;2022-08-19T01:16:28;101078.70;;;16.65;36.80
71222;BME280;58965;59.324;18.268;2022-08-19T01:18:53;101074.75;;;16.37;37.08
71222;BME280;58965;59.324;18.268;2022-08-19T01:21:22;101072.05;;;16.88;36.78
71222;BME280;58965;59.324;18.268;2022-08-19T01:23:44;101069.32;;;16.09;37.22
71222;BME280;58965;59.324;18.268;2022-08-19T01:26:11;101073.52;;;16.44;37.42
71222;BME280;58965;59.324;18.268;2022-08-19T01:28:36;101070.44;;;16.30;37.07
71222;BME280;58965;59.324;18.268;2022-08-19T01:31:00;101072.06;;;16.62;36.87
71222;BME280;58965;59.324;18.268;2022-08-19T01:33:25;101070.74;;;16.07;37.45
71222;BME280;58965;59.324;18.268;2022-08-19T01:35:51;101070.34;;;16.93;37.01
71222;BME280;58965;59.324;18.268;2022-08-19T01:38:21;101072.42;;;16.35;36.65
71222;BME280;58965;59.324;18.268;2022-08-19T01:40:41;101069.10;;;17.11;36.59
71222;BME280;58965;59.324;18.268;2022-08-19T01:43:07;101074.46;;;16.39;38.03
71222;BME280;58965;59.324;18.268;2022-08-19T01:45:34;101078.74;;;16.93;36.70
71222;BME280;58965;59.324;18.268;2022-08-19T01:47:59;101075.39;;;17.23;36.20
71222;BME280;58965;59.324;18.268;2022-08-19T01:50:23;101080.09;;;16.51;37.40
71222;BME280;58965;59.324;18.268;2022-08-19T01:52:48;101083.06;;;15.88;37.62
71222;BME280;58965;59.324;18.268;2022-08-19T01:55:16;101087.19;;;16.11;37.36
71222;BME280;58965;59.324;18.268;2022-08-19T01:57:40;101082.32;;;16.99;36.52
71222;BME280;58965;59.324;18.268;2022-08-19T02:00:08;101078.49;;;17.13;36.53
71222;BME280;58965;59.324;18.268;2022-08-19T02:02:29;101075.38;;;16.35;37.02
71222;BME280;58965;59.324;18.268;2022-08-19T02:04:55;101068.53;;;16.34;36.60
71222;BME280;58965;59.324;18.268;2022-08-19T02:07:21;101068.02;;;16.74;36.40
71222;BME280;58965;59.324;18.268;2022-08-19T02:09:46;101076.10;;;16.33;37.28
71222;BME280;58965;59.324;18.268;2022-08-19T02:12:11;101071.84;;;16.97;36.53
71222;BME280;58965;59.324;18.268;2022-08-19T02:14:36;101067.82;;;15.02;38.44
71222;BME280;58965;59.324;18.268;2022-08-19T02:17:02;101065.77;;;16.78;36.91
71222;BME280;58965;59.324;18.268;2022-08-19T02:19:27;101066.25;;;16.04;37.71
71222;BME280;58965;59.324;18.268;2022-08-19T02:21:52;101063.62;;;17.09;37.03
71222;BME280;58965;59.324;18.268;2022-08-19T02:24:18;101066.33;;;17.25;36.57
71222;BME280;58965;59.324;18.268;2022-08-19T02:26:44;101065.91;;;16.66;37.21
71222;BME280;58965;59.324;18.268;2022-08-19T02:29:09;101068.58;;;16.12;37.37
71222;BME280;58965;59.324;18.268;2022-08-19T02:31:34;101069.45;;;16.04;37.53
71222;BME280;58965;59.324;18.268;2022-08-19T02:34:01;101065.13;;;16.77;36.83
71222;BME280;58965;59.324;18.268;2022-08-19T02:36:25;101070.07;;;15.55;37.77
71222;BME280;58965;59.324;18.268;2022-08-19T02:38:51;101071.54;;;16.18;37.33
71222;BME280;58965;59.324;18.268;2022-08-19T02:41:18;101069.01;;;16.34;37.15
71222;BME280;58965;59.324;18.268;2022-08-19T02:43:41;101068.59;;;16.50;37.32
71222;BME280;58965;59.324;18.268;2022-08-19T02:46:12;101071.29;;;15.76;37.65
71222;BME280;58965;59.324;18.268;2022-08-19T02:48:31;101073.04;;;16.28;37.67
71222;BME280;58965;59.324;18.268;2022-08-19T02:50:56;101078.29;;;16.34;37.79
71222;BME280;58965;59.324;18.268;2022-08-19T02:53:24;101079.72;;;16.75;37.02
71222;BME280;58965;59.324;18.268;2022-08-19T02:55:48;101076.89;;;17.22;36.70
71222;BME280;58965;59.324;18.268;2022-08-19T02:58:14;101077.53;;;15.78;37.92
71222;BME280;58965;59.324;18.268;2022-08-19T03:00:44;101079.46;;;14.72;39.01
71222;BME280;58965;59.324;18.268;2022-08-19T03:03:04;101079.96;;;17.32;37.05
71222;BME280;58965;59.324;18.268;2022-08-19T03:05:29;101078.79;;;17.06;37.15
71222;BME280;58965;59.324;18.268;2022-08-19T03:07:54;101084.04;;;16.49;37.70
71222;BME280;58965;59.324;18.268;2022-08-19T03:10:20;101081.70;;;17.14;36.82
71222;BME280;58965;59.324;18.268;2022-08-19T03:12:45;101077.01;;;16.88;36.81
71222;BME280;58965;59.324;18.268;2022-08-19T03:15:11;101076.27;;;15.79;37.58
71222;BME280;58965;59.324;18.268;2022-08-19T03:17:36;101075.35;;;15.73;38.41
71222;BME280;58965;59.324;18.268;2022-08-19T03:20:03;101074.26;;;16.48;37.15
71222;BME280;58965;59.324;18.268;2022-08-19T03:22:27;101075.00;;;15.99;37.99
71222;BME280;58965;59.324;18.268;2022-08-19T03:24:53;101078.67;;;16.64;37.79
71222;BME280;58965;59.324;18.268;2022-08-19T03:27:18;101073.45;;;16.51;37.33
71222;BME280;58965;59.324;18.268;2022-08-19T03:29:43;101073.82;;;16.69;37.54
71222;BME280;58965;59.324;18.268;2022-08-19T03:32:10;101073.51;;;17.13;37.02
71222;BME280;58965;59.324;18.268;2022-08-19T03:34:36;101073.54;;;16.86;37.12
71222;BME280;58965;59.324;18.268;2022-08-19T03:37:05;101076.13;;;16.60;37.55
71222;BME280;58965;59.324;18.268;2022-08-19T03:39:26;101077.92;;;16.20;37.61
71222;BME280;58965;59.324;18.268;2022-08-19T03:41:52;101076.25;;;17.32;37.49
71222;BME280;58965;59.324;18.268;2022-08-19T03:44:18;101074.33;;;16.76;37.34
71222;BME280;58965;59.324;18.268;2022-08-19T03:46:41;101071.76;;;16.10;37.44
71222;BME280;58965;59.324;18.268;2022-08-19T03:49:07;101076.11;;;16.68;37.49
71222;BME280;58965;59.324;18.268;2022-08-19T03:51:35;101077.08;;;16.77;37.09
71222;BME280;58965;59.324;18.268;2022-08-19T03:54:01;101080.53;;;16.67;37.17
71222;BME280;58965;59.324;18.268;2022-08-19T03:56:24;101084.68;;;16.24;37.48
71222;BME280;58965;59.324;18.268;2022-08-19T03:58:48;101089.47;;;16.32;37.75
71222;BME280;58965;59.324;18.268;2022-08-19T04:01:16;101085.90;;;16.20;37.45
71222;BME280;58965;59.324;18.268;2022-08-19T04:03:40;101085.16;;;16.14;37.75
71222;BME280;58965;59.324;18.268;2022-08-19T04:06:14;101087.01;;;16.47;37.95
71222;BME280;58965;59.324;18.268;2022-08-19T04:08:30;101083.97;;;16.52;37.87
71222;BME280;58965;59.324;18.268;2022-08-19T04:10:55;101083.84;;;16.48;37.81
71222;BME280;58965;59.324;18.268;2022-08-19T04:13:20;101076.33;;;16.28;38.18
71222;BME280;58965;59.324;18.268;2022-08-19T04:15:46;101077.68;;;16.60;37.55
71222;BME280;58965;59.324;18.268;2022-08-19T04:18:12;101085.35;;;16.18;38.19
71222;BME280;58965;59.324;18.268;2022-08-19T04:20:40;101088.25;;;16.20;37.73
71222;BME280;58965;59.324;18.268;2022-08-19T04:23:02;101093.43;;;16.23;37.86
71222;BME280;58965;59.324;18.268;2022-08-19T04:25:27;101098.89;;;15.59;38.48
71222;BME280;58965;59.324;18.268;2022-08-19T04:27:52;101104.12;;;15.18;39.31
71222;BME280;58965;59.324;18.268;2022-08-19T04:30:18;101105.49;;;15.38;38.98
71222;BME280;58965;59.324;18.268;2022-08-19T04:32:43;101110.11;;;16.90;38.00
71222;BME280;58965;59.324;18.268;2022-08-19T04:35:09;101110.53;;;16.47;38.73
71222;BME280;58965;59.324;18.268;2022-08-19T04:37:35;101113.39;;;16.55;37.79
71222;BME280;58965;59.324;18.268;2022-08-19T04:40:02;101115.53;;;16.04;38.27
71222;BME280;58965;59.324;18.268;2022-08-19T04:42:26;101119.98;;;15.86;38.35
71222;BME280;58965;59.324;18.268;2022-08-19T04:44:51;101123.39;;;17.01;38.16
71222;BME280;58965;59.324;18.268;2022-08-19T04:47:16;101126.05;;;16.58;38.07
71222;BME280;58965;59.324;18.268;2022-08-19T04:49:42;101124.24;;;16.91;37.22
71222;BME280;58965;59.324;18.268;2022-08-19T04:52:07;101123.43;;;15.95;38.08
71222;BME280;58965;59.324;18.268;2022-08-19T04:54:32;101119.78;;;16.71;38.03
71222;BME280;58965;59.324;18.268;2022-08-19T04:56:58;101116.88;;;16.63;37.99
71222;BME280;58965;59.324;18.268;2022-08-19T04:59:23;101119.67;;;16.52;37.80
71222;BME280;58965;59.324;18.268;2022-08-19T05:01:49;101114.23;;;16.49;37.16
71222;BME280;58965;59.324;18.268;2022-08-19T05:04:14;101116.30;;;16.20;38.05
71222;BME280;58965;59.324;18.268;2022-08-19T05:06:39;101112.18;;;16.89;37.52
71222;BME280;58965;59.324;18.268;2022-08-19T05:09:05;101110.16;;;17.50;36.81
71222;BME280;58965;59.324;18.268;2022-08-19T05:11:32;101111.13;;;15.25;39.26
71222;BME280;58965;59.324;18.268;2022-08-19T05:13:56;101113.35;;;15.75;38.79
71222;BME280;58965;59.324;18.268;2022-08-19T05:16:22;101110.76;;;16.06;38.71
71222;BME280;58965;59.324;18.268;2022-08-19T05:18:47;101104.01;;;17.06;37.38
71222;BME280;58965;59.324;18.268;2022-08-19T05:21:14;101099.93;;;17.85;36.42
71222;BME280;58965;59.324;18.268;2022-08-19T05:23:37;101095.38;;;14.63;39.58
71222;BME280;58965;59.324;18.268;2022-08-19T05:26:02;101098.28;;;16.75;37.78
71222;BME280;58965;59.324;18.268;2022-08-19T05:28:28;101090.59;;;16.57;37.54
71222;BME280;58965;59.324;18.268;2022-08-19T05:30:53;101091.17;;;15.74;38.24
71222;BME280;58965;59.324;18.268;2022-08-19T05:33:19;101092.33;;;16.87;37.16
71222;BME280;58965;59.324;18.268;2022-08-19T05:35:44;101093.26;;;16.53;37.44
71222;BME280;58965;59.324;18.268;2022-08-19T05:38:10;101096.71;;;16.73;36.31
71222;BME280;58965;59.324;18.268;2022-08-19T05:40:35;101095.05;;;17.14;36.74
71222;BME280;58965;59.324;18.268;2022-08-19T05:43:01;101096.46;;;15.68;37.77
71222;BME280;58965;59.324;18.268;2022-08-19T05:45:26;101094.82;;;15.45;38.16
71222;BME280;58965;59.324;18.268;2022-08-19T05:47:51;101090.88;;;16.19;37.83
71222;BME280;58965;59.324;18.268;2022-08-19T05:50:16;101086.96;;;16.59;37.06
71222;BME280;58965;59.324;18.268;2022-08-19T05:52:41;101089.28;;;16.18;37.65
71222;BME280;58965;59.324;18.268;2022-08-19T05:55:07;101093.63;;;17.70;37.30
71222;BME280;58965;59.324;18.268;2022-08-19T05:57:32;101094.00;;;17.41;36.87
71222;BME280;58965;59.324;18.268;2022-08-19T05:59:58;101091.32;;;19.49;34.91
71222;BME280;58965;59.324;18.268;2022-08-19T06:02:23;101093.82;;;17.82;35.68
71222;BME280;58965;59.324;18.268;2022-08-19T06:04:48;101093.55;;;18.14;35.51
71222;BME280;58965;59.324;18.268;2022-08-19T06:07:14;101091.58;;;17.48;36.08
71222;BME280;58965;59.324;18.268;2022-08-19T06:09:40;101092.01;;;18.21;34.62
71222;BME280;58965;59.324;18.268;2022-08-19T06:12:06;101088.26;;;19.13;34.40
71222;BME280;58965;59.324;18.268;2022-08-19T06:14:32;101089.00;;;19.39;34.27
71222;BME280;58965;59.324;18.268;2022-08-19T06:16:57;101087.50;;;17.31;36.30
71222;BME280;58965;59.324;18.268;2022-08-19T06:19:22;101086.93;;;18.45;34.71
71222;BME280;58965;59.324;18.268;2022-08-19T06:21:49;101086.51;;;16.80;36.91
71222;BME280;58965;59.324;18.268;2022-08-19T06:24:14;101085.94;;;17.81;35.69
71222;BME280;58965;59.324;18.268;2022-08-19T06:26:41;101086.51;;;19.73;34.46
71222;BME280;58965;59.324;18.268;2022-08-19T06:29:03;101084.87;;;21.18;33.10
71222;BME280;58965;59.324;18.268;2022-08-19T06:31:29;101088.53;;;19.79;33.86
71222;BME280;58965;59.324;18.268;2022-08-19T06:33:53;101088.46;;;20.30;33.25
71222;BME280;58965;59.324;18.268;2022-08-19T06:36:21;101093.82;;;18.42;34.39
71222;BME280;58965;59.324;18.268;2022-08-19T06:38:43;101094.39;;;18.69;34.63
71222;BME280;58965;59.324;18.268;2022-08-19T06:41:08;101095.92;;;19.56;33.84
71222;BME280;58965;59.324;18.268;2022-08-19T06:43:34;101097.30;;;19.65;34.03
71222;BME280;58965;59.324;18.268;2022-08-19T06:46:00;101104.00;;;17.76;35.54
71222;BME280;58965;59.324;18.268;2022-08-19T06:48:24;101100.46;;;20.14;33.20
71222;BME280;58965;59.324;18.268;2022-08-19T06:50:49;101102.87;;;17.29;36.18
71222;BME280;58965;59.324;18.268;2022-08-19T06:53:14;101100.82;;;19.64;33.86
71222;BME280;58965;59.324;18.268;2022-08-19T06:55:40;101098.32;;;16.76;36.11
71222;BME280;58965;59.324;18.268;2022-08-19T06:58:05;101094.40;;;19.30;34.38
71222;BME280;58965;59.324;18.268;2022-08-19T07:00:30;101095.60;;;18.36;35.45
71222;BME280;58965;59.324;18.268;2022-08-19T07:02:55;101100.63;;;15.32;37.66
71222;BME280;58965;59.324;18.268;2022-08-19T07:05:20;101098.93;;;18.17;35.41
71222;BME280;58965;59.324;18.268;2022-08-19T07:07:45;101098.40;;;16.96;36.83
71222;BME280;58965;59.324;18.268;2022-08-19T07:10:11;101099.29;;;17.75;36.30
71222;BME280;58965;59.324;18.268;2022-08-19T07:12:36;101100.09;;;15.72;37.82
71222;BME280;58965;59.324;18.268;2022-08-19T07:15:03;101104.73;;;14.38;39.22
71222;BME280;58965;59.324;18.268;2022-08-19T07:17:27;101105.97;;;16.51;36.92
71222;BME280;58965;59.324;18.268;2022-08-19T07:19:52;101111.63;;;19.63;33.94
71222;BME280;58965;59.324;18.268;2022-08-19T07:22:17;101110.13;;;16.45;36.62
71222;BME280;58965;59.324;18.268;2022-08-19T07:24:43;101111.12;;;15.85;37.78
71222;BME280;58965;59.324;18.268;2022-08-19T07:27:07;101113.96;;;15.79;38.25
71222;BME280;58965;59.324;18.268;2022-08-19T07:29:34;101111.09;;;16.68;36.34
71222;BME280;58965;59.324;18.268;2022-08-19T07:32:00;101117.56;;;15.86;37.07
71222;BME280;58965;59.324;18.268;2022-08-19T07:34:24;101115.57;;;15.99;37.51
71222;BME280;58965;59.324;18.268;2022-08-19T07:36:49;101121.92;;;15.84;37.60
71222;BME280;58965;59.324;18.268;2022-08-19T07:39:17;101121.52;;;15.11;38.32
71222;BME280;58965;59.324;18.268;2022-08-19T07:41:39;101119.01;;;17.23;35.64
71222;BME280;58965;59.324;18.268;2022-08-19T07:44:06;101116.84;;;17.49;35.69
71222;BME280;58965;59.324;18.268;2022-08-19T07:46:30;101113.86;;;17.36;35.80
71222;BME280;58965;59.324;18.268;2022-08-19T07:48:54;101111.77;;;15.74;37.67
71222;BME280;58965;59.324;18.268;2022-08-19T07:51:21;101110.33;;;14.76;38.46
71222;BME280;58965;59.324;18.268;2022-08-19T07:53:45;101108.43;;;16.71;36.61
71222;BME280;58965;59.324;18.268;2022-08-19T07:56:10;101109.13;;;15.66;37.47
71222;BME280;58965;59.324;18.268;2022-08-19T07:58:38;101109.80;;;17.84;34.99
71222;BME280;58965;59.324;18.268;2022-08-19T08:01:02;101108.71;;;18.42;34.68
71222;BME280;58965;59.324;18.268;2022-08-19T08:03:26;101110.32;;;16.79;35.66
71222;BME280;58965;59.324;18.268;2022-08-19T08:05:51;101114.14;;;17.23;34.84
71222;BME280;58965;59.324;18.268;2022-08-19T08:08:16;101109.48;;;17.60;35.04
71222;BME280;58965;59.324;18.268;2022-08-19T08:10:41;101110.65;;;19.89;32.74
71222;BME280;58965;59.324;18.268;2022-08-19T08:13:07;101114.22;;;17.07;35.36
71222;BME280;58965;59.324;18.268;2022-08-19T08:15:31;101112.18;;;17.07;35.82
71222;BME280;58965;59.324;18.268;2022-08-19T08:17:56;101112.18;;;18.25;34.74
71222;BME280;58965;59.324;18.268;2022-08-19T08:20:21;101104.40;;;19.80;32.46
71222;BME280;58965;59.324;18.268;2022-08-19T08:22:48;101102.99;;;19.52;33.81
71222;BME280;58965;59.324;18.268;2022-08-19T08:25:15;101101.25;;;18.24;34.00
71222;BME280;58965;59.324;18.268;2022-08-19T08:27:39;101097.52;;;19.46;32.73
71222;BME280;58965;59.324;18.268;2022-08-19T08:30:04;101094.98;;;18.72;33.73
71222;BME280;58965;59.324;18.268;2022-08-19T08:32:28;101098.40;;;19.02;33.12
71222;BME280;58965;59.324;18.268;2022-08-19T08:34:53;101096.08;;;19.71;32.49
71222;BME280;58965;59.324;18.268;2022-08-19T08:37:18;101102.03;;;19.07;32.88
71222;BME280;58965;59.324;18.268;2022-08-19T08:39:44;101097.80;;;20.34;31.89
71222;BME280;58965;59.324;18.268;2022-08-19T08:42:13;101100.07;;;17.84;33.73
71222;BME280;58965;59.324;18.268;2022-08-19T08:44:42;101105.93;;;19.43;32.89
71222;BME280;58965;59.324;18.268;2022-08-19T08:47:02;101103.09;;;20.45;31.99
71222;BME280;58965;59.324;18.268;2022-08-19T08:49:39;101108.36;;;17.86;33.71
71222;BME280;58965;59.324;18.268;2022-08-19T08:51:54;101106.02;;;18.69;33.76
71222;BME280;58965;59.324;18.268;2022-08-19T08:54:19;101106.67;;;19.01;33.30
71222;BME280;58965;59.324;18.268;2022-08-19T08:56:41;101101.70;;;20.09;32.27
71222;BME280;58965;59.324;18.268;2022-08-19T08:59:09;101106.77;;;18.36;33.56
71222;BME280;58965;59.324;18.268;2022-08-19T09:01:30;101101.49;;;20.64;31.22
71222;BME280;58965;59.324;18.268;2022-08-19T09:03:55;101101.60;;;20.30;32.03
71222;BME280;58965;59.324;18.268;2022-08-19T09:06:26;101104.14;;;19.09;33.22
71222;BME280;58965;59.324;18.268;2022-08-19T09:08:50;101102.01;;;18.52;33.07
71222;BME280;58965;59.324;18.268;2022-08-19T09:11:15;101095.62;;;20.71;31.44
71222;BME280;58965;59.324;18.268;2022-08-19T09:13:44;101095.17;;;21.56;30.58
71222;BME280;58965;59.324;18.268;2022-08-19T09:16:05;101091.71;;;20.96;31.34
71222;BME280;58965;59.324;18.268;2022-08-19T09:18:39;101094.50;;;18.83;33.10
71222;BME280;58965;59.324;18.268;2022-08-19T09:20:51;101093.43;;;18.50;33.75
71222;BME280;58965;59.324;18.268;2022-08-19T09:23:16;101089.80;;;20.74;31.75
71222;BME280;58965;59.324;18.268;2022-08-19T09:25:41;101088.48;;;19.19;33.09
71222;BME280;58965;59.324;18.268;2022-08-19T09:28:07;101083.21;;;21.17;31.42
71222;BME280;58965;59.324;18.268;2022-08-19T09:30:34;101083.85;;;20.06;31.70
71222;BME280;58965;59.324;18.268;2022-08-19T09:32:57;101084.17;;;19.59;32.80
71222;BME280;58965;59.324;18.268;2022-08-19T09:35:25;101087.32;;;20.09;32.25
71222;BME280;58965;59.324;18.268;2022-08-19T09:37:48;101091.68;;;20.10;32.09
71222;BME280;58965;59.324;18.268;2022-08-19T09:40:12;101089.77;;;20.09;32.21
71222;BME280;58965;59.324;18.268;2022-08-19T09:42:38;101088.03;;;19.94;32.62
71222;BME280;58965;59.324;18.268;2022-08-19T09:45:03;101087.79;;;21.81;30.80
71222;BME280;58965;59.324;18.268;2022-08-19T09:47:28;101089.70;;;20.29;31.88
71222;BME280;58965;59.324;18.268;2022-08-19T09:49:53;101084.88;;;21.99;30.79
71222;BME280;58965;59.324;18.268;2022-08-19T09:52:18;101084.53;;;19.29;32.57
71222;BME280;58965;59.324;18.268;2022-08-19T09:54:43;101080.20;;;20.34;31.80
71222;BME280;58965;59.324;18.268;2022-08-19T09:57:08;101078.91;;;21.68;30.71
71222;BME280;58965;59.324;18.268;2022-08-19T09:59:33;101075.50;;;20.78;31.33
71222;BME280;58965;59.324;18.268;2022-08-19T10:02:00;101073.40;;;19.76;31.76
71222;BME280;58965;59.324;18.268;2022-08-19T10:04:25;101069.25;;;21.37;30.76
71222;BME280;58965;59.324;18.268;2022-08-19T10:06:50;101071.60;;;20.90;30.48
71222;BME280;58965;59.324;18.268;2022-08-19T10:09:17;101073.21;;;21.19;29.70
71222;BME280;58965;59.324;18.268;2022-08-19T10:11:41;101075.47;;;19.54;30.94
71222;BME280;58965;59.324;18.268;2022-08-19T10:14:06;101073.80;;;20.02;30.06
71222;BME280;58965;59.324;18.268;2022-08-19T10:16:30;101074.27;;;21.75;28.56
71222;BME280;58965;59.324;18.268;2022-08-19T10:18:56;101074.13;;;19.95;30.13
71222;BME280;58965;59.324;18.268;2022-08-19T10:21:22;101071.85;;;20.86;28.85
71222;BME280;58965;59.324;18.268;2022-08-19T10:23:48;101071.84;;;21.05;28.82
71222;BME280;58965;59.324;18.268;2022-08-19T10:26:12;101077.00;;;19.40;30.23
71222;BME280;58965;59.324;18.268;2022-08-19T10:28:37;101073.32;;;18.85;30.40
71222;BME280;58965;59.324;18.268;2022-08-19T10:31:04;101079.60;;;19.42;30.22
71222;BME280;58965;59.324;18.268;2022-08-19T10:33:27;101073.91;;;20.53;29.38
71222;BME280;58965;59.324;18.268;2022-08-19T10:35:59;101077.24;;;19.19;30.44
71222;BME280;58965;59.324;18.268;2022-08-19T10:38:17;101076.45;;;21.63;28.47
71222;BME280;58965;59.324;18.268;2022-08-19T10:40:42;101070.85;;;19.79;29.32
71222;BME280;58965;59.324;18.268;2022-08-19T10:43:07;101069.63;;;22.59;27.52
71222;BME280;58965;59.324;18.268;2022-08-19T10:45:33;101066.85;;;21.84;27.84
71222;BME280;58965;59.324;18.268;2022-08-19T10:47:58;101066.77;;;21.09;28.08
71222;BME280;58965;59.324;18.268;2022-08-19T10:50:24;101067.77;;;21.47;27.88
71222;BME280;58965;59.324;18.268;2022-08-19T10:52:50;101068.48;;;21.72;27.39
71222;BME280;58965;59.324;18.268;2022-08-19T10:55:15;101069.38;;;21.33;27.86
71222;BME280;58965;59.324;18.268;2022-08-19T10:57:40;101065.46;;;20.81;27.79
71222;BME280;58965;59.324;18.268;2022-08-19T11:00:06;101066.16;;;21.48;27.71
71222;BME280;58965;59.324;18.268;2022-08-19T11:02:30;101064.79;;;21.77;27.60
71222;BME280;58965;59.324;18.268;2022-08-19T11:04:55;101061.44;;;21.74;27.88
71222;BME280;58965;59.324;18.268;2022-08-19T11:07:20;101059.82;;;22.32;27.21
71222;BME280;58965;59.324;18.268;2022-08-19T11:09:45;101065.18;;;21.67;27.45
71222;BME280;58965;59.324;18.268;2022-08-19T11:12:11;101061.60;;;23.11;26.74
71222;BME280;58965;59.324;18.268;2022-08-19T11:14:36;101066.54;;;22.07;27.50
71222;BME280;58965;59.324;18.268;2022-08-19T11:17:02;101064.79;;;20.66;28.26
71222;BME280;58965;59.324;18.268;2022-08-19T11:19:26;101065.23;;;19.08;29.50
71222;BME280;58965;59.324;18.268;2022-08-19T11:21:51;101065.83;;;20.80;28.08
71222;BME280;58965;59.324;18.268;2022-08-19T11:24:18;101064.26;;;19.00;30.13
71222;BME280;58965;59.324;18.268;2022-08-19T11:26:43;101061.20;;;22.34;27.38
71222;BME280;58965;59.324;18.268;2022-08-19T11:29:08;101061.91;;;19.83;29.02
71222;BME280;58965;59.324;18.268;2022-08-19T11:31:34;101063.05;;;20.21;28.70
71222;BME280;58965;59.324;18.268;2022-08-19T11:33:58;101061.51;;;19.63;28.90
71222;BME280;58965;59.324;18.268;2022-08-19T11:36:22;101058.96;;;20.38;28.92
71222;BME280;58965;59.324;18.268;2022-08-19T11:38:48;101058.11;;;18.83;29.82
71222;BME280;58965;59.324;18.268;2022-08-19T11:41:12;101060.26;;;19.22;30.14
71222;BME280;58965;59.324;18.268;2022-08-19T11:43:37;101059.06;;;22.10;27.84
71222;BME280;58965;59.324;18.268;2022-08-19T11:46:04;101061.62;;;18.83;30.22
71222;BME280;58965;59.324;18.268;2022-08-19T11:48:27;101064.49;;;19.27;30.51
71222;BME280;58965;59.324;18.268;2022-08-19T11:50:53;101060.77;;;20.35;29.56
71222;BME280;58965;59.324;18.268;2022-08-19T11:53:19;101060.89;;;20.04;29.60
71222;BME280;58965;59.324;18.268;2022-08-19T11:55:43;101061.91;;;19.69;29.97
71222;BME280;58965;59.324;18.268;2022-08-19T11:58:08;101059.24;;;19.18;30.59
71222;BME280;58965;59.324;18.268;2022-08-19T12:00:34;101057.90;;;20.70;29.76
71222;BME280;58965;59.324;18.268;2022-08-19T12:03:00;101056.24;;;20.21;29.62
71222;BME280;58965;59.324;18.268;2022-08-19T12:05:24;101058.85;;;19.89;30.10
71222;BME280;58965;59.324;18.268;2022-08-19T12:07:49;101059.94;;;21.09;28.89
71222;BME280;58965;59.324;18.268;2022-08-19T12:10:14;101059.70;;;18.88;30.73
71222;BME280;58965;59.324;18.268;2022-08-19T12:12:39;101058.19;;;19.54;29.47
71222;BME280;58965;59.324;18.268;2022-08-19T12:15:06;101056.53;;;20.89;28.78
71222;BME280;58965;59.324;18.268;2022-08-19T12:17:30;101055.40;;;20.34;29.02
71222;BME280;58965;59.324;18.268;2022-08-19T12:19:55;101055.40;;;21.88;27.79
71222;BME280;58965;59.324;18.268;2022-08-19T12:22:20;101060.25;;;21.07;28.08
71222;BME280;58965;59.324;18.268;2022-08-19T12:24:45;101062.70;;;20.05;28.77
71222;BME280;58965;59.324;18.268;2022-08-19T12:27:10;101061.99;;;19.25;29.79
71222;BME280;58965;59.324;18.268;2022-08-19T12:29:35;101062.34;;;20.87;29.19